sensor_id;sensor_type;location;lat;lon;timestamp;P1;durP1;ratioP1;P2;durP2;ratioP2
28587;SDS011;15787;49.662;10.162;2023-09-18T00:01:10;7.50;;;5.05;;
28587;SDS011;15787;49.662;10.162;2023-09-18T00:03:43;6.25;;;5.00;;
28587;SDS011;15787;49.662;10.162;2023-09-18T00:06:16;9.32;;;5.00;;
28587;SDS011;15787;49.662;10.162;2023-09-18T00:08:49;6.90;;;4.55;;
28587;SDS011;15787;49.662;10.162;2023-09-18T00:11:24;7.35;;;4.78;;
28587;SDS011;15787;49.662;10.162;2023-09-18T00:13:57;6.47;;;4.63;;
28587;SDS011;15787;49.662;10.162;2023-09-18T00:16:30;7.00;;;4.45;;
28587;SDS011;15787;49.662;10.162;2023-09-18T00:19:22;5.70;;;4.18;;
28587;SDS011;15787;49.662;10.162;2023-09-18T00:21:56;7.43;;;4.85;;
28587;SDS011;15787;49.662;10.162;2023-09-18T00:24:32;5.20;;;4.05;;
28587;SDS011;15787;49.662;10.162;2023-09-18T00:27:06;7.05;;;5.38;;
28587;SDS011;15787;49.662;10.162;2023-09-18T00:29:39;7.50;;;5.03;;
28587;SDS011;15787;49.662;10.162;2023-09-18T00:32:12;6.47;;;5.00;;
28587;SDS011;15787;49.662;10.162;2023-09-18T00:34:45;9.80;;;6.00;;
28587;SDS011;15787;49.662;10.162;2023-09-18T00:37:18;8.25;;;5.20;;
28587;SDS011;15787;49.662;10.162;2023-09-18T00:39:51;7.25;;;4.93;;
28587;SDS011;15787;49.662;10.162;2023-09-18T00:42:25;7.18;;;5.35;;
28587;SDS011;15787;49.662;10.162;2023-09-18T00:44:58;8.20;;;5.75;;
28587;SDS011;15787;49.662;10.162;2023-09-18T00:47:31;6.50;;;5.13;;
28587;SDS011;15787;49.662;10.162;2023-09-18T00:50:05;10.10;;;5.72;;
28587;SDS011;15787;49.662;10.162;2023-09-18T00:52:40;7.13;;;5.10;;
28587;SDS011;15787;49.662;10.162;2023-09-18T00:55:15;6.40;;;4.80;;
28587;SDS011;15787;49.662;10.162;2023-09-18T00:57:50;6.18;;;5.15;;
28587;SDS011;15787;49.662;10.162;2023-09-18T01:00:23;6.88;;;5.25;;
28587;SDS011;15787;49.662;10.162;2023-09-18T01:02:56;7.05;;;5.13;;
28587;SDS011;15787;49.662;10.162;2023-09-18T01:05:30;5.85;;;4.68;;
28587;SDS011;15787;49.662;10.162;2023-09-18T01:08:04;6.32;;;4.90;;
28587;SDS011;15787;49.662;10.162;2023-09-18T01:10:39;5.85;;;4.65;;
28587;SDS011;15787;49.662;10.162;2023-09-18T01:13:26;5.88;;;4.60;;
28587;SDS011;15787;49.662;10.162;2023-09-18T01:18:48;7.82;;;4.75;;
28587;SDS011;15787;49.662;10.162;2023-09-18T01:21:21;10.07;;;5.10;;
28587;SDS011;15787;49.662;10.162;2023-09-18T01:23:55;6.80;;;5.40;;
28587;SDS011;15787;49.662;10.162;2023-09-18T01:26:28;6.32;;;5.05;;
28587;SDS011;15787;49.662;10.162;2023-09-18T01:29:02;9.90;;;5.45;;
28587;SDS011;15787;49.662;10.162;2023-09-18T01:31:35;7.05;;;5.20;;
28587;SDS011;15787;49.662;10.162;2023-09-18T01:34:08;8.63;;;5.15;;
28587;SDS011;15787;49.662;10.162;2023-09-18T01:36:41;7.22;;;5.10;;
28587;SDS011;15787;49.662;10.162;2023-09-18T01:39:17;6.35;;;4.57;;
28587;SDS011;15787;49.662;10.162;2023-09-18T01:41:52;6.38;;;4.72;;
28587;SDS011;15787;49.662;10.162;2023-09-18T01:44:25;9.70;;;4.88;;
28587;SDS011;15787;49.662;10.162;2023-09-18T01:46:58;7.05;;;5.13;;
28587;SDS011;15787;49.662;10.162;2023-09-18T01:49:34;7.78;;;5.28;;
28587;SDS011;15787;49.662;10.162;2023-09-18T01:52:08;10.88;;;5.03;;
28587;SDS011;15787;49.662;10.162;2023-09-18T01:54:44;6.70;;;5.03;;
28587;SDS011;15787;49.662;10.162;2023-09-18T01:57:17;7.15;;;4.65;;
28587;SDS011;15787;49.662;10.162;2023-09-18T01:59:50;6.75;;;4.72;;
28587;SDS011;15787;49.662;10.162;2023-09-18T02:02:23;6.80;;;4.95;;
28587;SDS011;15787;49.662;10.162;2023-09-18T02:05:17;7.50;;;5.07;;
28587;SDS011;15787;49.662;10.162;2023-09-18T02:07:50;7.93;;;5.15;;
28587;SDS011;15787;49.662;10.162;2023-09-18T02:10:25;5.80;;;4.82;;
28587;SDS011;15787;49.662;10.162;2023-09-18T02:12:58;6.35;;;4.90;;
28587;SDS011;15787;49.662;10.162;2023-09-18T02:15:31;5.60;;;4.40;;
28587;SDS011;15787;49.662;10.162;2023-09-18T02:18:06;7.22;;;5.07;;
28587;SDS011;15787;49.662;10.162;2023-09-18T02:20:40;7.85;;;5.47;;
28587;SDS011;15787;49.662;10.162;2023-09-18T02:23:13;7.65;;;5.80;;
28587;SDS011;15787;49.662;10.162;2023-09-18T02:25:48;9.15;;;6.55;;
28587;SDS011;15787;49.662;10.162;2023-09-18T02:28:28;6.85;;;5.32;;
28587;SDS011;15787;49.662;10.162;2023-09-18T02:31:02;8.50;;;5.28;;
28587;SDS011;15787;49.662;10.162;2023-09-18T02:33:36;9.88;;;5.40;;
28587;SDS011;15787;49.662;10.162;2023-09-18T02:36:09;8.95;;;6.28;;
28587;SDS011;15787;49.662;10.162;2023-09-18T02:38:42;9.57;;;5.88;;
28587;SDS011;15787;49.662;10.162;2023-09-18T02:41:16;8.80;;;5.68;;
28587;SDS011;15787;49.662;10.162;2023-09-18T02:43:50;7.60;;;5.65;;
28587;SDS011;15787;49.662;10.162;2023-09-18T02:46:23;7.28;;;5.40;;
28587;SDS011;15787;49.662;10.162;2023-09-18T02:48:56;6.57;;;5.00;;
28587;SDS011;15787;49.662;10.162;2023-09-18T02:51:29;7.32;;;5.20;;
28587;SDS011;15787;49.662;10.162;2023-09-18T02:54:03;9.73;;;6.40;;
28587;SDS011;15787;49.662;10.162;2023-09-18T02:56:38;5.75;;;4.72;;
28587;SDS011;15787;49.662;10.162;2023-09-18T02:59:11;8.27;;;5.63;;
28587;SDS011;15787;49.662;10.162;2023-09-18T03:01:45;9.35;;;5.90;;
28587;SDS011;15787;49.662;10.162;2023-09-18T03:04:18;8.10;;;5.38;;
28587;SDS011;15787;49.662;10.162;2023-09-18T03:06:52;7.43;;;5.60;;
28587;SDS011;15787;49.662;10.162;2023-09-18T03:09:25;6.28;;;4.85;;
28587;SDS011;15787;49.662;10.162;2023-09-18T03:12:00;6.35;;;4.75;;
28587;SDS011;15787;49.662;10.162;2023-09-18T03:14:33;7.00;;;5.10;;
28587;SDS011;15787;49.662;10.162;2023-09-18T03:17:06;7.45;;;4.90;;
28587;SDS011;15787;49.662;10.162;2023-09-18T03:19:40;6.47;;;4.88;;
28587;SDS011;15787;49.662;10.162;2023-09-18T03:22:15;6.15;;;5.15;;
28587;SDS011;15787;49.662;10.162;2023-09-18T03:24:48;7.55;;;4.53;;
28587;SDS011;15787;49.662;10.162;2023-09-18T03:27:23;6.13;;;4.38;;
28587;SDS011;15787;49.662;10.162;2023-09-18T03:30:00;7.85;;;4.80;;
28587;SDS011;15787;49.662;10.162;2023-09-18T03:32:33;7.82;;;5.60;;
28587;SDS011;15787;49.662;10.162;2023-09-18T03:35:07;8.68;;;5.28;;
28587;SDS011;15787;49.662;10.162;2023-09-18T03:37:47;5.95;;;4.70;;
28587;SDS011;15787;49.662;10.162;2023-09-18T03:40:21;6.25;;;5.28;;
28587;SDS011;15787;49.662;10.162;2023-09-18T03:42:55;6.68;;;5.30;;
28587;SDS011;15787;49.662;10.162;2023-09-18T03:45:28;7.50;;;4.93;;
28587;SDS011;15787;49.662;10.162;2023-09-18T03:48:01;6.75;;;5.10;;
28587;SDS011;15787;49.662;10.162;2023-09-18T03:50:35;6.20;;;5.25;;
28587;SDS011;15787;49.662;10.162;2023-09-18T03:53:08;8.50;;;5.50;;
28587;SDS011;15787;49.662;10.162;2023-09-18T03:55:41;7.05;;;5.53;;
28587;SDS011;15787;49.662;10.162;2023-09-18T03:58:15;7.60;;;5.22;;
28587;SDS011;15787;49.662;10.162;2023-09-18T04:00:48;8.15;;;5.93;;
28587;SDS011;15787;49.662;10.162;2023-09-18T04:03:22;8.40;;;5.68;;
28587;SDS011;15787;49.662;10.162;2023-09-18T04:05:55;7.65;;;4.80;;
28587;SDS011;15787;49.662;10.162;2023-09-18T04:08:28;8.60;;;5.05;;
28587;SDS011;15787;49.662;10.162;2023-09-18T04:11:04;6.60;;;5.07;;
28587;SDS011;15787;49.662;10.162;2023-09-18T04:13:42;10.68;;;6.28;;
28587;SDS011;15787;49.662;10.162;2023-09-18T04:16:15;8.90;;;5.85;;
28587;SDS011;15787;49.662;10.162;2023-09-18T04:18:49;8.57;;;5.57;;
28587;SDS011;15787;49.662;10.162;2023-09-18T04:21:22;7.22;;;5.35;;
28587;SDS011;15787;49.662;10.162;2023-09-18T04:23:56;9.38;;;5.32;;
28587;SDS011;15787;49.662;10.162;2023-09-18T04:26:30;8.23;;;5.40;;
28587;SDS011;15787;49.662;10.162;2023-09-18T04:29:06;10.82;;;5.88;;
28587;SDS011;15787;49.662;10.162;2023-09-18T04:31:39;7.60;;;5.95;;
28587;SDS011;15787;49.662;10.162;2023-09-18T04:34:12;9.52;;;6.00;;
28587;SDS011;15787;49.662;10.162;2023-09-18T04:36:45;9.45;;;6.32;;
28587;SDS011;15787;49.662;10.162;2023-09-18T04:39:20;9.00;;;6.53;;
28587;SDS011;15787;49.662;10.162;2023-09-18T04:41:54;9.45;;;5.97;;
28587;SDS011;15787;49.662;10.162;2023-09-18T04:44:28;8.60;;;5.70;;
28587;SDS011;15787;49.662;10.162;2023-09-18T04:47:02;7.93;;;5.90;;
28587;SDS011;15787;49.662;10.162;2023-09-18T04:49:36;13.50;;;7.18;;
28587;SDS011;15787;49.662;10.162;2023-09-18T04:52:09;9.30;;;5.97;;
28587;SDS011;15787;49.662;10.162;2023-09-18T04:54:42;12.43;;;6.38;;
28587;SDS011;15787;49.662;10.162;2023-09-18T04:57:15;8.32;;;6.43;;
28587;SDS011;15787;49.662;10.162;2023-09-18T04:59:51;10.43;;;6.47;;
28587;SDS011;15787;49.662;10.162;2023-09-18T05:02:44;9.20;;;6.15;;
28587;SDS011;15787;49.662;10.162;2023-09-18T05:05:17;9.40;;;6.00;;
28587;SDS011;15787;49.662;10.162;2023-09-18T05:07:51;7.68;;;5.70;;
28587;SDS011;15787;49.662;10.162;2023-09-18T05:10:24;9.18;;;6.10;;
28587;SDS011;15787;49.662;10.162;2023-09-18T05:12:57;8.75;;;6.38;;
28587;SDS011;15787;49.662;10.162;2023-09-18T05:15:32;11.10;;;6.32;;
28587;SDS011;15787;49.662;10.162;2023-09-18T05:18:05;8.95;;;5.60;;
28587;SDS011;15787;49.662;10.162;2023-09-18T05:20:39;8.68;;;6.43;;
28587;SDS011;15787;49.662;10.162;2023-09-18T05:23:12;15.07;;;6.75;;
28587;SDS011;15787;49.662;10.162;2023-09-18T05:25:49;11.15;;;6.22;;
28587;SDS011;15787;49.662;10.162;2023-09-18T05:28:22;9.25;;;6.93;;
28587;SDS011;15787;49.662;10.162;2023-09-18T05:30:57;9.77;;;6.90;;
28587;SDS011;15787;49.662;10.162;2023-09-18T05:33:30;10.27;;;6.25;;
28587;SDS011;15787;49.662;10.162;2023-09-18T05:36:03;9.05;;;6.25;;
28587;SDS011;15787;49.662;10.162;2023-09-18T05:38:36;8.75;;;6.05;;
28587;SDS011;15787;49.662;10.162;2023-09-18T05:41:09;9.45;;;6.00;;
28587;SDS011;15787;49.662;10.162;2023-09-18T05:43:42;8.07;;;6.15;;
28587;SDS011;15787;49.662;10.162;2023-09-18T05:46:16;9.20;;;5.63;;
28587;SDS011;15787;49.662;10.162;2023-09-18T05:48:49;8.15;;;5.70;;
28587;SDS011;15787;49.662;10.162;2023-09-18T05:51:23;9.80;;;5.80;;
28587;SDS011;15787;49.662;10.162;2023-09-18T05:53:56;8.18;;;5.82;;
28587;SDS011;15787;49.662;10.162;2023-09-18T05:56:30;10.73;;;6.28;;
28587;SDS011;15787;49.662;10.162;2023-09-18T05:59:03;7.03;;;4.97;;
28587;SDS011;15787;49.662;10.162;2023-09-18T06:01:37;12.07;;;6.07;;
28587;SDS011;15787;49.662;10.162;2023-09-18T06:04:10;9.95;;;6.80;;
28587;SDS011;15787;49.662;10.162;2023-09-18T06:06:44;7.10;;;5.40;;
28587;SDS011;15787;49.662;10.162;2023-09-18T06:09:17;9.02;;;6.22;;
28587;SDS011;15787;49.662;10.162;2023-09-18T06:11:50;8.52;;;5.20;;
28587;SDS011;15787;49.662;10.162;2023-09-18T06:14:23;10.05;;;5.50;;
28587;SDS011;15787;49.662;10.162;2023-09-18T06:16:57;9.02;;;5.70;;
28587;SDS011;15787;49.662;10.162;2023-09-18T06:19:30;10.77;;;5.35;;
28587;SDS011;15787;49.662;10.162;2023-09-18T06:22:04;8.02;;;5.65;;
28587;SDS011;15787;49.662;10.162;2023-09-18T06:24:38;8.95;;;5.32;;
28587;SDS011;15787;49.662;10.162;2023-09-18T06:27:11;10.05;;;6.30;;
28587;SDS011;15787;49.662;10.162;2023-09-18T06:29:44;8.85;;;6.13;;
28587;SDS011;15787;49.662;10.162;2023-09-18T06:32:18;7.43;;;5.68;;
28587;SDS011;15787;49.662;10.162;2023-09-18T06:34:51;7.20;;;5.22;;
28587;SDS011;15787;49.662;10.162;2023-09-18T06:37:24;8.57;;;5.40;;
28587;SDS011;15787;49.662;10.162;2023-09-18T06:39:58;10.23;;;6.57;;
28587;SDS011;15787;49.662;10.162;2023-09-18T06:42:31;7.70;;;5.07;;
28587;SDS011;15787;49.662;10.162;2023-09-18T06:45:05;8.70;;;5.07;;
28587;SDS011;15787;49.662;10.162;2023-09-18T06:47:40;10.95;;;5.80;;
28587;SDS011;15787;49.662;10.162;2023-09-18T06:50:13;9.95;;;5.72;;
28587;SDS011;15787;49.662;10.162;2023-09-18T06:52:46;8.45;;;4.90;;
28587;SDS011;15787;49.662;10.162;2023-09-18T06:55:20;8.85;;;4.25;;
28587;SDS011;15787;49.662;10.162;2023-09-18T06:57:53;9.05;;;4.10;;
28587;SDS011;15787;49.662;10.162;2023-09-18T07:00:26;8.73;;;4.60;;
28587;SDS011;15787;49.662;10.162;2023-09-18T07:03:00;9.50;;;4.03;;
28587;SDS011;15787;49.662;10.162;2023-09-18T07:05:34;8.30;;;4.40;;
28587;SDS011;15787;49.662;10.162;2023-09-18T07:08:08;12.80;;;4.05;;
28587;SDS011;15787;49.662;10.162;2023-09-18T07:10:43;8.88;;;4.47;;
28587;SDS011;15787;49.662;10.162;2023-09-18T07:13:17;14.38;;;4.20;;
28587;SDS011;15787;49.662;10.162;2023-09-18T07:15:50;7.40;;;4.00;;
28587;SDS011;15787;49.662;10.162;2023-09-18T07:18:24;8.43;;;3.85;;
28587;SDS011;15787;49.662;10.162;2023-09-18T07:20:57;11.50;;;3.58;;
28587;SDS011;15787;49.662;10.162;2023-09-18T07:23:30;7.38;;;3.40;;
28587;SDS011;15787;49.662;10.162;2023-09-18T07:26:03;7.78;;;3.30;;
28587;SDS011;15787;49.662;10.162;2023-09-18T07:28:37;8.80;;;3.45;;
28587;SDS011;15787;49.662;10.162;2023-09-18T07:31:11;11.32;;;4.65;;
28587;SDS011;15787;49.662;10.162;2023-09-18T07:33:47;15.48;;;3.70;;
28587;SDS011;15787;49.662;10.162;2023-09-18T07:36:20;10.85;;;3.55;;
28587;SDS011;15787;49.662;10.162;2023-09-18T07:38:53;10.98;;;3.40;;
28587;SDS011;15787;49.662;10.162;2023-09-18T07:41:28;8.18;;;4.35;;
28587;SDS011;15787;49.662;10.162;2023-09-18T07:44:00;10.85;;;4.18;;
28587;SDS011;15787;49.662;10.162;2023-09-18T07:46:33;8.82;;;4.00;;
28587;SDS011;15787;49.662;10.162;2023-09-18T07:49:08;10.68;;;3.78;;
28587;SDS011;15787;49.662;10.162;2023-09-18T07:51:41;13.43;;;4.03;;
28587;SDS011;15787;49.662;10.162;2023-09-18T07:54:16;8.25;;;3.85;;
28587;SDS011;15787;49.662;10.162;2023-09-18T07:56:49;7.13;;;3.50;;
28587;SDS011;15787;49.662;10.162;2023-09-18T07:59:23;8.70;;;3.85;;
28587;SDS011;15787;49.662;10.162;2023-09-18T08:01:56;12.38;;;4.18;;
28587;SDS011;15787;49.662;10.162;2023-09-18T08:04:32;10.30;;;3.50;;
28587;SDS011;15787;49.662;10.162;2023-09-18T08:07:05;5.70;;;3.33;;
28587;SDS011;15787;49.662;10.162;2023-09-18T08:09:38;6.75;;;3.17;;
28587;SDS011;15787;49.662;10.162;2023-09-18T08:12:11;8.77;;;3.95;;
28587;SDS011;15787;49.662;10.162;2023-09-18T08:14:44;10.77;;;3.83;;
28587;SDS011;15787;49.662;10.162;2023-09-18T08:17:18;10.45;;;3.88;;
28587;SDS011;15787;49.662;10.162;2023-09-18T08:19:52;7.70;;;3.47;;
28587;SDS011;15787;49.662;10.162;2023-09-18T08:22:26;16.98;;;3.75;;
28587;SDS011;15787;49.662;10.162;2023-09-18T08:24:59;7.43;;;3.50;;
28587;SDS011;15787;49.662;10.162;2023-09-18T08:27:32;5.65;;;3.20;;
28587;SDS011;15787;49.662;10.162;2023-09-18T08:30:06;10.48;;;4.15;;
28587;SDS011;15787;49.662;10.162;2023-09-18T08:32:41;5.15;;;2.88;;
28587;SDS011;15787;49.662;10.162;2023-09-18T08:35:16;8.27;;;3.30;;
28587;SDS011;15787;49.662;10.162;2023-09-18T08:37:49;8.60;;;3.05;;
28587;SDS011;15787;49.662;10.162;2023-09-18T08:40:22;7.97;;;3.10;;
28587;SDS011;15787;49.662;10.162;2023-09-18T08:42:56;10.07;;;3.15;;
28587;SDS011;15787;49.662;10.162;2023-09-18T08:45:35;10.52;;;2.88;;
28587;SDS011;15787;49.662;10.162;2023-09-18T08:48:10;7.72;;;2.58;;
28587;SDS011;15787;49.662;10.162;2023-09-18T08:50:45;6.95;;;2.63;;
28587;SDS011;15787;49.662;10.162;2023-09-18T08:53:21;8.50;;;2.58;;
28587;SDS011;15787;49.662;10.162;2023-09-18T08:55:54;10.77;;;2.55;;
28587;SDS011;15787;49.662;10.162;2023-09-18T08:58:29;7.93;;;2.53;;
28587;SDS011;15787;49.662;10.162;2023-09-18T09:01:05;12.90;;;2.85;;
28587;SDS011;15787;49.662;10.162;2023-09-18T09:03:41;6.07;;;1.60;;
28587;SDS011;15787;49.662;10.162;2023-09-18T09:06:18;7.45;;;2.35;;
28587;SDS011;15787;49.662;10.162;2023-09-18T09:08:51;9.15;;;2.03;;
28587;SDS011;15787;49.662;10.162;2023-09-18T09:11:24;6.85;;;1.70;;
28587;SDS011;15787;49.662;10.162;2023-09-18T09:16:50;8.65;;;1.60;;
28587;SDS011;15787;49.662;10.162;2023-09-18T09:19:28;3.10;;;1.60;;
28587;SDS011;15787;49.662;10.162;2023-09-18T09:22:03;7.25;;;1.60;;
28587;SDS011;15787;49.662;10.162;2023-09-18T09:24:38;8.60;;;1.42;;
28587;SDS011;15787;49.662;10.162;2023-09-18T09:27:15;6.93;;;2.40;;
28587;SDS011;15787;49.662;10.162;2023-09-18T09:29:57;7.68;;;1.35;;
28587;SDS011;15787;49.662;10.162;2023-09-18T09:32:31;9.27;;;1.90;;
28587;SDS011;15787;49.662;10.162;2023-09-18T09:35:05;5.70;;;1.40;;
28587;SDS011;15787;49.662;10.162;2023-09-18T09:37:40;3.88;;;1.33;;
28587;SDS011;15787;49.662;10.162;2023-09-18T09:40:13;4.90;;;1.30;;
28587;SDS011;15787;49.662;10.162;2023-09-18T09:42:47;5.57;;;1.27;;
28587;SDS011;15787;49.662;10.162;2023-09-18T09:45:20;8.93;;;1.80;;
28587;SDS011;15787;49.662;10.162;2023-09-18T09:47:53;4.97;;;1.40;;
28587;SDS011;15787;49.662;10.162;2023-09-18T09:50:30;4.20;;;1.17;;
28587;SDS011;15787;49.662;10.162;2023-09-18T09:53:05;5.53;;;1.20;;
28587;SDS011;15787;49.662;10.162;2023-09-18T09:55:38;5.55;;;1.23;;
28587;SDS011;15787;49.662;10.162;2023-09-18T09:58:11;4.72;;;1.17;;
28587;SDS011;15787;49.662;10.162;2023-09-18T10:00:46;4.60;;;1.30;;
28587;SDS011;15787;49.662;10.162;2023-09-18T10:03:21;6.32;;;2.22;;
28587;SDS011;15787;49.662;10.162;2023-09-18T10:05:54;5.00;;;1.42;;
28587;SDS011;15787;49.662;10.162;2023-09-18T10:08:31;5.90;;;1.40;;
28587;SDS011;15787;49.662;10.162;2023-09-18T10:11:06;4.10;;;1.33;;
28587;SDS011;15787;49.662;10.162;2023-09-18T10:13:42;6.90;;;1.50;;
28587;SDS011;15787;49.662;10.162;2023-09-18T10:16:21;6.00;;;1.70;;
28587;SDS011;15787;49.662;10.162;2023-09-18T10:19:03;5.40;;;1.65;;
28587;SDS011;15787;49.662;10.162;2023-09-18T10:21:41;3.92;;;1.23;;
28587;SDS011;15787;49.662;10.162;2023-09-18T10:24:24;4.75;;;1.40;;
28587;SDS011;15787;49.662;10.162;2023-09-18T10:26:58;5.60;;;1.27;;
28587;SDS011;15787;49.662;10.162;2023-09-18T10:29:34;6.60;;;1.27;;
28587;SDS011;15787;49.662;10.162;2023-09-18T10:32:08;5.80;;;1.02;;
28587;SDS011;15787;49.662;10.162;2023-09-18T10:34:41;5.68;;;1.48;;
28587;SDS011;15787;49.662;10.162;2023-09-18T10:37:15;8.77;;;1.25;;
28587;SDS011;15787;49.662;10.162;2023-09-18T10:39:51;8.25;;;1.20;;
28587;SDS011;15787;49.662;10.162;2023-09-18T10:42:26;4.07;;;1.23;;
28587;SDS011;15787;49.662;10.162;2023-09-18T10:45:01;9.63;;;1.48;;
28587;SDS011;15787;49.662;10.162;2023-09-18T10:47:37;6.22;;;1.45;;
28587;SDS011;15787;49.662;10.162;2023-09-18T10:50:12;7.65;;;1.92;;
28587;SDS011;15787;49.662;10.162;2023-09-18T10:52:56;8.18;;;1.40;;
28587;SDS011;15787;49.662;10.162;2023-09-18T10:55:31;5.03;;;1.35;;
28587;SDS011;15787;49.662;10.162;2023-09-18T10:58:05;5.18;;;1.33;;
28587;SDS011;15787;49.662;10.162;2023-09-18T11:00:39;4.43;;;1.20;;
28587;SDS011;15787;49.662;10.162;2023-09-18T11:03:15;5.05;;;1.67;;
28587;SDS011;15787;49.662;10.162;2023-09-18T11:11:02;4.90;;;1.50;;
28587;SDS011;15787;49.662;10.162;2023-09-18T11:13:43;5.85;;;1.20;;
28587;SDS011;15787;49.662;10.162;2023-09-18T11:16:18;3.80;;;1.17;;
28587;SDS011;15787;49.662;10.162;2023-09-18T11:19:09;7.28;;;1.55;;
28587;SDS011;15787;49.662;10.162;2023-09-18T11:21:45;12.23;;;1.60;;
28587;SDS011;15787;49.662;10.162;2023-09-18T11:24:19;5.53;;;1.50;;
28587;SDS011;15787;49.662;10.162;2023-09-18T11:26:55;6.93;;;1.67;;
28587;SDS011;15787;49.662;10.162;2023-09-18T11:29:28;7.47;;;1.60;;
28587;SDS011;15787;49.662;10.162;2023-09-18T11:32:03;5.55;;;1.38;;
28587;SDS011;15787;49.662;10.162;2023-09-18T11:34:37;7.60;;;2.58;;
28587;SDS011;15787;49.662;10.162;2023-09-18T11:37:19;5.22;;;1.52;;
28587;SDS011;15787;49.662;10.162;2023-09-18T11:39:52;4.22;;;1.58;;
28587;SDS011;15787;49.662;10.162;2023-09-18T11:42:26;4.10;;;1.45;;
28587;SDS011;15787;49.662;10.162;2023-09-18T11:44:59;3.88;;;1.20;;
28587;SDS011;15787;49.662;10.162;2023-09-18T11:47:33;5.53;;;1.77;;
28587;SDS011;15787;49.662;10.162;2023-09-18T11:50:14;4.18;;;1.08;;
28587;SDS011;15787;49.662;10.162;2023-09-18T11:52:51;7.50;;;1.27;;
28587;SDS011;15787;49.662;10.162;2023-09-18T11:55:26;4.90;;;1.35;;
28587;SDS011;15787;49.662;10.162;2023-09-18T11:58:01;5.20;;;1.55;;
28587;SDS011;15787;49.662;10.162;2023-09-18T12:00:35;2.88;;;1.00;;
28587;SDS011;15787;49.662;10.162;2023-09-18T12:03:17;3.95;;;1.05;;
28587;SDS011;15787;49.662;10.162;2023-09-18T12:05:57;4.18;;;1.13;;
28587;SDS011;15787;49.662;10.162;2023-09-18T12:08:32;3.95;;;1.25;;
28587;SDS011;15787;49.662;10.162;2023-09-18T12:11:05;8.63;;;2.70;;
28587;SDS011;15787;49.662;10.162;2023-09-18T12:13:41;4.10;;;1.20;;
28587;SDS011;15787;49.662;10.162;2023-09-18T12:16:13;2.88;;;1.10;;
28587;SDS011;15787;49.662;10.162;2023-09-18T12:18:47;6.13;;;2.00;;
28587;SDS011;15787;49.662;10.162;2023-09-18T12:21:20;10.35;;;1.67;;
28587;SDS011;15787;49.662;10.162;2023-09-18T12:23:53;5.93;;;1.90;;
28587;SDS011;15787;49.662;10.162;2023-09-18T12:26:26;3.00;;;1.90;;
28587;SDS011;15787;49.662;10.162;2023-09-18T12:29:03;5.22;;;1.23;;
28587;SDS011;15787;49.662;10.162;2023-09-18T12:31:39;9.18;;;1.77;;
28587;SDS011;15787;49.662;10.162;2023-09-18T12:34:15;4.10;;;1.40;;
28587;SDS011;15787;49.662;10.162;2023-09-18T12:36:49;4.40;;;1.13;;
28587;SDS011;15787;49.662;10.162;2023-09-18T12:39:23;7.68;;;1.73;;
28587;SDS011;15787;49.662;10.162;2023-09-18T12:41:56;9.43;;;1.67;;
28587;SDS011;15787;49.662;10.162;2023-09-18T12:44:36;4.78;;;1.05;;
28587;SDS011;15787;49.662;10.162;2023-09-18T12:47:48;6.25;;;1.23;;
28587;SDS011;15787;49.662;10.162;2023-09-18T12:50:22;4.30;;;1.88;;
28587;SDS011;15787;49.662;10.162;2023-09-18T12:53:06;5.78;;;1.92;;
28587;SDS011;15787;49.662;10.162;2023-09-18T12:55:43;3.30;;;1.00;;
28587;SDS011;15787;49.662;10.162;2023-09-18T12:58:18;3.92;;;1.48;;
28587;SDS011;15787;49.662;10.162;2023-09-18T13:00:53;3.03;;;0.93;;
28587;SDS011;15787;49.662;10.162;2023-09-18T13:03:26;2.13;;;1.20;;
28587;SDS011;15787;49.662;10.162;2023-09-18T13:06:06;4.13;;;1.67;;
28587;SDS011;15787;49.662;10.162;2023-09-18T13:08:43;4.05;;;1.00;;
28587;SDS011;15787;49.662;10.162;2023-09-18T13:11:17;1.77;;;0.65;;
28587;SDS011;15787;49.662;10.162;2023-09-18T13:13:56;2.03;;;0.80;;
28587;SDS011;15787;49.662;10.162;2023-09-18T13:16:32;1.50;;;0.77;;
28587;SDS011;15787;49.662;10.162;2023-09-18T13:19:08;3.42;;;0.65;;
28587;SDS011;15787;49.662;10.162;2023-09-18T13:21:46;2.15;;;0.90;;
28587;SDS011;15787;49.662;10.162;2023-09-18T13:24:26;1.95;;;0.70;;
28587;SDS011;15787;49.662;10.162;2023-09-18T13:26:59;3.95;;;0.50;;
28587;SDS011;15787;49.662;10.162;2023-09-18T13:29:32;3.88;;;0.60;;
28587;SDS011;15787;49.662;10.162;2023-09-18T13:32:07;1.27;;;0.73;;
28587;SDS011;15787;49.662;10.162;2023-09-18T13:34:40;2.90;;;0.93;;
28587;SDS011;15787;49.662;10.162;2023-09-18T13:37:13;2.25;;;0.95;;
28587;SDS011;15787;49.662;10.162;2023-09-18T13:39:48;1.75;;;0.70;;
28587;SDS011;15787;49.662;10.162;2023-09-18T13:42:22;1.50;;;0.68;;
28587;SDS011;15787;49.662;10.162;2023-09-18T13:44:55;2.40;;;0.82;;
28587;SDS011;15787;49.662;10.162;2023-09-18T13:47:30;2.38;;;0.70;;
28587;SDS011;15787;49.662;10.162;2023-09-18T13:50:03;2.35;;;0.75;;
28587;SDS011;15787;49.662;10.162;2023-09-18T13:52:37;2.28;;;0.82;;
28587;SDS011;15787;49.662;10.162;2023-09-18T13:55:10;1.25;;;0.50;;
28587;SDS011;15787;49.662;10.162;2023-09-18T13:57:43;3.88;;;0.60;;
28587;SDS011;15787;49.662;10.162;2023-09-18T14:00:16;1.75;;;1.00;;
28587;SDS011;15787;49.662;10.162;2023-09-18T14:02:51;1.70;;;0.70;;
28587;SDS011;15787;49.662;10.162;2023-09-18T14:05:24;1.55;;;0.63;;
28587;SDS011;15787;49.662;10.162;2023-09-18T14:07:58;3.67;;;0.60;;
28587;SDS011;15787;49.662;10.162;2023-09-18T14:10:32;2.92;;;0.70;;
28587;SDS011;15787;49.662;10.162;2023-09-18T14:13:04;1.90;;;0.82;;
28587;SDS011;15787;49.662;10.162;2023-09-18T14:15:39;2.92;;;0.90;;
28587;SDS011;15787;49.662;10.162;2023-09-18T14:18:13;1.85;;;0.75;;
28587;SDS011;15787;49.662;10.162;2023-09-18T14:20:46;1.55;;;0.70;;
28587;SDS011;15787;49.662;10.162;2023-09-18T14:23:19;2.83;;;0.88;;
28587;SDS011;15787;49.662;10.162;2023-09-18T14:25:52;1.63;;;0.60;;
28587;SDS011;15787;49.662;10.162;2023-09-18T14:28:26;2.00;;;0.60;;
28587;SDS011;15787;49.662;10.162;2023-09-18T14:30:59;3.80;;;0.70;;
28587;SDS011;15787;49.662;10.162;2023-09-18T14:33:36;2.83;;;0.70;;
28587;SDS011;15787;49.662;10.162;2023-09-18T14:36:09;2.38;;;0.63;;
28587;SDS011;15787;49.662;10.162;2023-09-18T14:38:42;1.40;;;0.57;;
28587;SDS011;15787;49.662;10.162;2023-09-18T14:41:16;1.83;;;0.55;;
28587;SDS011;15787;49.662;10.162;2023-09-18T14:43:51;2.88;;;0.90;;
28587;SDS011;15787;49.662;10.162;2023-09-18T14:46:24;2.45;;;0.77;;
28587;SDS011;15787;49.662;10.162;2023-09-18T14:48:59;2.60;;;0.70;;
28587;SDS011;15787;49.662;10.162;2023-09-18T14:51:32;2.92;;;0.73;;
28587;SDS011;15787;49.662;10.162;2023-09-18T14:54:06;3.47;;;0.88;;
28587;SDS011;15787;49.662;10.162;2023-09-18T14:56:39;1.50;;;0.70;;
28587;SDS011;15787;49.662;10.162;2023-09-18T14:59:13;3.28;;;0.90;;
28587;SDS011;15787;49.662;10.162;2023-09-18T15:01:55;3.22;;;0.80;;
28587;SDS011;15787;49.662;10.162;2023-09-18T15:04:29;2.45;;;0.70;;
28587;SDS011;15787;49.662;10.162;2023-09-18T15:07:02;2.97;;;0.85;;
28587;SDS011;15787;49.662;10.162;2023-09-18T15:09:35;2.17;;;0.70;;
28587;SDS011;15787;49.662;10.162;2023-09-18T15:12:08;1.55;;;0.60;;
28587;SDS011;15787;49.662;10.162;2023-09-18T15:14:43;3.97;;;0.90;;
28587;SDS011;15787;49.662;10.162;2023-09-18T15:17:15;2.20;;;0.80;;
28587;SDS011;15787;49.662;10.162;2023-09-18T15:19:51;2.47;;;0.60;;
28587;SDS011;15787;49.662;10.162;2023-09-18T15:22:27;4.18;;;0.63;;
28587;SDS011;15787;49.662;10.162;2023-09-18T15:24:59;2.13;;;0.70;;
28587;SDS011;15787;49.662;10.162;2023-09-18T15:27:34;1.65;;;0.50;;